Terminal Aerodrome Forecast
Issued by NWS Quad Cities IA IL

Home | Current Version | Previous Version | Text Only | Print | Product List | Glossary On
Versions: 1 2 3 4 5 6 7 8 9 10 11 12 13 14 15 16 17 18 19 20 21 22 23 24 25 26 27 28 29 30 31 32 33 34
608
FTUS43 KDVN 310408 AAB
TAFDBQ
TAF AMD
KDBQ 310408Z 3104/3124 16004KT P6SM VCTS SCT060CB
      TEMPO 3104/3105 17015G25KT 5SM TSRA BKN040CB
     FM310500 15005KT P6SM SCT120
     FM311500 18012KT P6SM SCT050=

USA.gov is the U.S. government's official web portal to all federal, state and local government web resources and services.